createdAt,value
2022-08-05T00:00:46.634Z,20.50
2022-08-05T00:03:17.034Z,19.60
2022-08-05T00:06:05.446Z,20.30
2022-08-05T00:08:35.163Z,20.30
2022-08-05T00:11:07.622Z,20.30
2022-08-05T00:13:53.219Z,20.20
2022-08-05T00:16:35.305Z,20.30
2022-08-05T00:19:04.051Z,20.20
2022-08-05T00:21:30.867Z,20.20
2022-08-05T00:24:10.708Z,20.30
2022-08-05T00:26:38.545Z,20.20
2022-08-05T00:29:05.180Z,20.10
2022-08-05T00:31:53.719Z,20.00
2022-08-05T00:34:56.630Z,20.00
2022-08-05T00:37:11.128Z,20.00
2022-08-05T00:39:57.516Z,20.00
2022-08-05T00:42:36.896Z,20.10
2022-08-05T00:45:08.831Z,20.10
2022-08-05T00:47:56.966Z,20.10
2022-08-05T00:50:25.851Z,20.10
2022-08-05T00:52:55.112Z,20.00
2022-08-05T00:55:22.946Z,20.00
2022-08-05T00:57:58.508Z,19.90
2022-08-05T01:00:27.638Z,19.90
2022-08-05T01:02:54.951Z,19.80
2022-08-05T01:05:22.026Z,19.90
2022-08-05T01:08:29.848Z,19.80
2022-08-05T01:10:52.236Z,19.80
2022-08-05T01:13:58.288Z,19.90
2022-08-05T01:17:00.053Z,19.90
2022-08-05T01:20:02.424Z,19.90
2022-08-05T01:22:59.729Z,19.90
2022-08-05T01:26:02.795Z,19.90
2022-08-05T01:28:41.995Z,19.90
2022-08-05T01:31:15.054Z,19.80
2022-08-05T01:33:54.113Z,19.70
2022-08-05T01:36:28.106Z,19.70
2022-08-05T01:38:56.172Z,19.60
2022-08-05T01:41:25.554Z,19.90
2022-08-05T01:43:53.569Z,20.10
2022-08-05T01:46:42.791Z,20.00
2022-08-05T01:49:23.647Z,19.80
2022-08-05T01:51:55.862Z,19.80
2022-08-05T01:54:27.328Z,20.00
2022-08-05T01:58:10.630Z,20.00
2022-08-05T01:59:48.204Z,19.90
2022-08-05T02:02:17.729Z,20.00
2022-08-05T02:04:49.507Z,20.00
2022-08-05T02:07:22.143Z,19.90
2022-08-05T02:09:50.991Z,19.90
2022-08-05T02:12:34.064Z,19.90
2022-08-05T02:15:08.216Z,20.00
2022-08-05T02:18:33.038Z,20.00
2022-08-05T02:20:39.302Z,20.00
2022-08-05T02:23:10.457Z,19.90
2022-08-05T02:25:49.934Z,19.80
2022-08-05T02:28:28.816Z,19.90
2022-08-05T02:31:04.925Z,20.00
2022-08-05T02:33:42.036Z,20.10
2022-08-05T02:36:13.751Z,20.20
2022-08-05T02:38:53.426Z,20.30
2022-08-05T02:41:22.995Z,20.40
2022-08-05T02:44:02.975Z,20.20
2022-08-05T02:46:43.994Z,20.10
2022-08-05T02:49:27.121Z,19.90
2022-08-05T02:52:04.856Z,20.10
2022-08-05T02:54:35.617Z,20.10
2022-08-05T02:58:09.883Z,20.00
2022-08-05T03:00:04.998Z,20.00
2022-08-05T03:02:37.039Z,19.80
2022-08-05T03:05:04.964Z,19.50
2022-08-05T03:07:59.373Z,19.40
2022-08-05T03:10:24.380Z,19.40
2022-08-05T03:12:52.900Z,19.30
2022-08-05T03:15:20.759Z,19.30
2022-08-05T03:17:47.401Z,19.40
2022-08-05T03:20:14.046Z,19.50
2022-08-05T03:22:43.924Z,19.60
2022-08-05T03:25:32.441Z,19.50
2022-08-05T03:28:02.167Z,19.40
2022-08-05T03:30:33.617Z,19.30
2022-08-05T03:33:02.973Z,19.30
2022-08-05T03:35:30.949Z,19.30
2022-08-05T03:38:01.235Z,19.30
2022-08-05T03:40:32.407Z,19.00
2022-08-05T03:43:01.515Z,19.00
2022-08-05T03:45:57.403Z,19.00
2022-08-05T03:48:27.469Z,19.00
2022-08-05T03:52:39.070Z,18.90
2022-08-05T03:55:50.265Z,19.00
2022-08-05T03:56:53.709Z,19.20
2022-08-05T03:59:24.555Z,19.30
2022-08-05T04:01:53.450Z,18.90
2022-08-05T04:04:27.535Z,18.90
2022-08-05T04:06:54.802Z,18.70
2022-08-05T04:09:26.343Z,18.70
2022-08-05T04:11:56.426Z,18.70
2022-08-05T04:14:30.316Z,18.80
2022-08-05T04:16:59.539Z,18.90
2022-08-05T04:19:27.794Z,19.00
2022-08-05T04:22:10.039Z,18.90
2022-08-05T04:24:52.398Z,18.90
2022-08-05T04:27:41.744Z,19.00
2022-08-05T04:30:08.272Z,19.00
2022-08-05T04:32:35.810Z,18.90
2022-08-05T04:35:03.454Z,18.80
2022-08-05T04:38:02.201Z,18.80
2022-08-05T04:40:19.768Z,18.70
2022-08-05T04:42:46.577Z,18.60
2022-08-05T04:45:14.154Z,18.60
2022-08-05T04:47:49.967Z,18.60
2022-08-05T04:50:37.158Z,18.50
2022-08-05T04:53:04.116Z,18.60
2022-08-05T04:56:11.881Z,18.60
2022-08-05T04:58:21.723Z,18.60
2022-08-05T05:00:50.655Z,18.60
2022-08-05T05:03:20.332Z,18.50
2022-08-05T05:06:39.776Z,18.50
2022-08-05T05:08:36.147Z,18.50
2022-08-05T05:11:10.311Z,18.60
2022-08-05T05:13:43.465Z,18.50
2022-08-05T05:16:10.497Z,18.60
2022-08-05T05:18:38.443Z,18.70
2022-08-05T05:21:05.510Z,18.80
2022-08-05T05:24:01.824Z,18.80
2022-08-05T05:26:19.546Z,18.90
2022-08-05T05:28:55.561Z,19.00
2022-08-05T05:31:23.813Z,19.10
2022-08-05T05:33:59.473Z,19.00
2022-08-05T05:36:29.991Z,19.20
2022-08-05T05:38:57.225Z,18.90
2022-08-05T05:41:24.273Z,18.80
2022-08-05T05:43:57.957Z,17.30
2022-08-05T05:46:27.064Z,18.80
2022-08-05T05:48:53.788Z,18.60
2022-08-05T05:51:22.020Z,18.50
2022-08-05T05:53:57.883Z,18.70
2022-08-05T05:56:32.749Z,18.80
2022-08-05T05:59:05.333Z,18.90
2022-08-05T06:01:39.697Z,19.70
2022-08-05T06:04:11.387Z,19.00
2022-08-05T06:06:41.863Z,19.00
2022-08-05T06:09:08.831Z,18.90
2022-08-05T06:11:35.725Z,19.00
2022-08-05T06:14:06.166Z,18.90
2022-08-05T06:16:37.357Z,19.00
2022-08-05T06:19:05.722Z,19.00
2022-08-05T06:21:37.140Z,19.10
2022-08-05T06:24:11.614Z,19.20
2022-08-05T06:26:45.883Z,19.10
2022-08-05T06:29:46.512Z,19.10
2022-08-05T06:32:24.850Z,19.20
2022-08-05T06:34:56.280Z,19.30
2022-08-05T06:37:55.931Z,19.40
2022-08-05T06:40:12.214Z,19.30
2022-08-05T06:42:39.863Z,19.40
2022-08-05T06:45:08.947Z,19.60
2022-08-05T06:48:37.246Z,19.60
2022-08-05T06:50:23.533Z,19.60
2022-08-05T06:53:03.493Z,19.60
2022-08-05T06:55:36.431Z,19.70
2022-08-05T06:58:29.645Z,19.80
2022-08-05T07:00:50.866Z,19.80
2022-08-05T07:03:18.164Z,19.70
2022-08-05T07:05:46.402Z,19.60
2022-08-05T07:08:13.314Z,19.70
2022-08-05T07:10:53.439Z,19.70
2022-08-05T07:13:57.667Z,19.80
2022-08-05T07:18:01.694Z,19.80
2022-08-05T07:20:16.453Z,19.90
2022-08-05T07:22:17.578Z,19.60
2022-08-05T07:24:52.427Z,19.40
2022-08-05T07:27:19.496Z,19.30
2022-08-05T07:30:27.724Z,19.50
2022-08-05T07:32:38.387Z,19.40
2022-08-05T07:36:03.137Z,19.20
2022-08-05T07:37:56.595Z,19.20
2022-08-05T07:40:26.695Z,19.30
2022-08-05T07:42:59.650Z,19.40
2022-08-05T07:45:56.664Z,19.30
2022-08-05T07:49:01.942Z,19.40
2022-08-05T07:51:08.677Z,19.30
2022-08-05T07:53:51.255Z,19.40
2022-08-05T07:57:02.578Z,19.50
2022-08-05T07:59:05.433Z,19.40
2022-08-05T08:01:35.456Z,19.30
2022-08-05T08:04:34.285Z,19.20
2022-08-05T08:07:07.153Z,19.30
2022-08-05T08:09:34.450Z,19.20
2022-08-05T08:12:09.337Z,19.20
2022-08-05T08:14:38.122Z,19.10
2022-08-05T08:17:15.738Z,19.10
2022-08-05T08:20:21.831Z,19.10
2022-08-05T08:22:32.304Z,19.10
2022-08-05T08:25:03.355Z,19.40
2022-08-05T08:27:45.124Z,19.50
2022-08-05T08:30:27.663Z,19.50
2022-08-05T08:33:04.638Z,19.50
2022-08-05T08:35:40.972Z,19.40
2022-08-05T08:38:16.473Z,19.40
2022-08-05T08:40:50.443Z,19.50
2022-08-05T08:44:56.490Z,19.60
2022-08-05T08:46:09.950Z,19.60
2022-08-05T08:49:07.900Z,19.40
2022-08-05T08:52:02.850Z,19.50
2022-08-05T08:54:21.225Z,19.60
2022-08-05T08:56:54.439Z,19.30
2022-08-05T08:59:27.655Z,19.20
2022-08-05T09:02:02.025Z,19.10
2022-08-05T09:04:30.404Z,19.10
2022-08-05T09:06:58.376Z,19.20
2022-08-05T09:09:25.926Z,19.30
2022-08-05T09:12:04.619Z,18.30
2022-08-05T09:14:56.545Z,19.20
2022-08-05T09:17:40.829Z,19.20
2022-08-05T09:20:11.510Z,19.10
2022-08-05T09:23:19.767Z,19.00
2022-08-05T09:26:00.346Z,18.90
2022-08-05T09:28:32.420Z,18.70
2022-08-05T09:31:43.467Z,18.70
2022-08-05T09:34:02.613Z,18.70
2022-08-05T09:36:54.106Z,19.00
2022-08-05T09:39:27.758Z,19.10
2022-08-05T09:42:21.225Z,19.20
2022-08-05T09:44:51.557Z,19.30
2022-08-05T09:47:23.996Z,19.20
2022-08-05T09:50:02.164Z,19.20
2022-08-05T09:52:33.976Z,19.20
2022-08-05T09:55:58.236Z,19.40
2022-08-05T09:57:58.619Z,19.50
2022-08-05T10:00:27.840Z,19.60
2022-08-05T10:02:58.656Z,19.50
2022-08-05T10:05:27.773Z,19.40
2022-08-05T10:08:34.947Z,19.50
2022-08-05T10:10:48.321Z,19.40
2022-08-05T10:13:47.262Z,19.40
2022-08-05T10:16:37.566Z,19.40
2022-08-05T10:19:09.110Z,19.30
2022-08-05T10:21:40.158Z,19.20
2022-08-05T10:24:10.567Z,19.20
2022-08-05T10:26:49.115Z,19.10
2022-08-05T10:29:23.626Z,19.00
2022-08-05T10:32:53.120Z,19.00
2022-08-05T10:34:58.210Z,19.00
2022-08-05T10:37:40.061Z,19.10
2022-08-05T10:40:43.469Z,19.20
2022-08-05T10:43:52.181Z,19.20
2022-08-05T10:46:23.900Z,18.60
2022-08-05T10:49:02.774Z,19.00
2022-08-05T10:51:59.705Z,19.00
2022-08-05T10:55:01.685Z,19.00
2022-08-05T10:57:29.526Z,18.90
2022-08-05T11:00:20.707Z,20.00
2022-08-05T11:03:24.216Z,19.00
2022-08-05T11:06:15.087Z,19.00
2022-08-05T11:09:10.779Z,18.90
2022-08-05T11:11:52.229Z,18.60
2022-08-05T11:14:42.851Z,18.30
2022-08-05T11:17:59.953Z,18.10
2022-08-05T11:20:41.561Z,18.30
2022-08-05T11:24:04.787Z,18.20
2022-08-05T11:26:33.376Z,18.30
2022-08-05T11:29:06.951Z,18.40
2022-08-05T11:31:57.800Z,18.50
2022-08-05T11:34:52.063Z,18.50
2022-08-05T11:38:28.627Z,18.50
2022-08-05T11:41:13.904Z,18.50
2022-08-05T11:44:05.129Z,18.40
2022-08-05T11:47:09.853Z,18.50
2022-08-05T11:49:39.679Z,18.60
2022-08-05T11:52:11.519Z,18.60
2022-08-05T11:54:40.311Z,18.70
2022-08-05T11:57:25.241Z,18.60
2022-08-05T11:59:54.558Z,18.70
2022-08-05T12:02:32.967Z,18.80
2022-08-05T12:05:07.385Z,18.70
2022-08-05T12:08:03.360Z,18.80
2022-08-05T12:10:38.542Z,18.80
2022-08-05T12:13:15.915Z,18.70
2022-08-05T12:15:45.233Z,18.60
2022-08-05T12:18:20.728Z,18.70
2022-08-05T12:20:51.067Z,18.90
2022-08-05T12:23:18.065Z,19.10
2022-08-05T12:25:56.895Z,19.10
2022-08-05T12:28:31.454Z,19.20
2022-08-05T12:31:02.097Z,19.10
2022-08-05T12:33:36.787Z,19.70
2022-08-05T12:36:08.250Z,19.20
2022-08-05T12:38:41.324Z,19.30
2022-08-05T12:41:14.061Z,19.40
2022-08-05T12:43:58.620Z,19.40
2022-08-05T12:46:28.803Z,19.20
2022-08-05T12:49:13.534Z,19.40
2022-08-05T12:52:13.081Z,19.60
2022-08-05T12:54:49.657Z,19.70
2022-08-05T12:57:16.778Z,19.90
2022-08-05T13:01:57.150Z,20.00
2022-08-05T13:02:40.138Z,19.80
2022-08-05T13:05:08.342Z,19.80
2022-08-05T13:07:59.720Z,20.00
2022-08-05T13:10:28.835Z,20.40
2022-08-05T13:12:58.288Z,20.40
2022-08-05T13:15:41.066Z,20.60
2022-08-05T13:18:08.561Z,20.80
2022-08-05T13:20:35.617Z,20.70
2022-08-05T13:23:07.591Z,20.80
2022-08-05T13:25:52.133Z,21.20
2022-08-05T13:28:22.028Z,21.30
2022-08-05T13:30:49.012Z,21.40
2022-08-05T13:34:21.107Z,21.40
2022-08-05T13:36:06.586Z,21.60
2022-08-05T13:38:38.561Z,21.70
2022-08-05T13:41:10.234Z,21.40
2022-08-05T13:43:44.591Z,21.40
2022-08-05T13:46:43.808Z,21.40
2022-08-05T13:49:10.122Z,21.30
2022-08-05T13:51:41.086Z,21.20
2022-08-05T13:54:11.819Z,21.30
2022-08-05T13:56:44.958Z,21.40
2022-08-05T13:59:21.041Z,21.20
2022-08-05T14:01:58.146Z,21.40
2022-08-05T14:04:51.632Z,21.60
2022-08-05T14:07:25.634Z,21.60
2022-08-05T14:10:18.929Z,21.30
2022-08-05T14:12:48.849Z,21.20
2022-08-05T14:16:08.645Z,21.20
2022-08-05T14:18:04.174Z,21.20
2022-08-05T14:20:31.737Z,21.30
2022-08-05T14:23:00.202Z,21.30
2022-08-05T14:25:28.306Z,21.30
2022-08-05T14:27:55.554Z,21.20
2022-08-05T14:30:22.650Z,21.30
2022-08-05T14:32:53.020Z,21.20
2022-08-05T14:35:20.631Z,21.00
2022-08-05T14:37:52.294Z,20.90
2022-08-05T14:40:20.291Z,20.90
2022-08-05T14:42:51.565Z,20.90
2022-08-05T14:45:18.718Z,21.00
2022-08-05T14:48:02.797Z,21.00
2022-08-05T14:50:32.998Z,21.00
2022-08-05T14:53:02.967Z,21.00
2022-08-05T14:55:39.130Z,21.10
2022-08-05T14:58:11.017Z,21.10
2022-08-05T15:00:38.714Z,21.20
2022-08-05T15:03:09.498Z,21.30
2022-08-05T15:06:06.988Z,21.40
2022-08-05T15:08:57.563Z,21.70
2022-08-05T15:11:10.503Z,21.90
2022-08-05T15:13:45.954Z,21.60
2022-08-05T15:16:13.394Z,21.30
2022-08-05T15:18:40.371Z,21.30
2022-08-05T15:21:08.666Z,21.70
2022-08-05T15:23:35.456Z,22.20
2022-08-05T15:26:04.837Z,22.10
2022-08-05T15:28:31.573Z,21.90
2022-08-05T15:30:58.382Z,21.60
2022-08-05T15:34:04.300Z,21.30
2022-08-05T15:36:17.747Z,21.20
2022-08-05T15:40:58.324Z,21.10
2022-08-05T15:41:58.121Z,20.90
2022-08-05T15:44:27.589Z,20.80
2022-08-05T15:46:54.639Z,20.50
2022-08-05T15:49:40.835Z,20.40
2022-08-05T15:52:13.949Z,20.20
2022-08-05T15:54:43.995Z,20.10
2022-08-05T15:57:10.837Z,20.50
2022-08-05T15:59:38.112Z,20.70
2022-08-05T16:02:09.267Z,20.90
2022-08-05T16:04:41.507Z,20.90
2022-08-05T16:07:10.653Z,21.30
2022-08-05T16:09:37.603Z,22.10
2022-08-05T16:12:08.916Z,22.10
2022-08-05T16:14:36.027Z,22.50
2022-08-05T16:17:04.352Z,22.20
2022-08-05T16:20:05.400Z,24.00
2022-08-05T16:22:18.022Z,25.10
2022-08-05T16:24:53.948Z,25.60
2022-08-05T16:27:32.083Z,25.30
2022-08-05T16:30:23.302Z,23.00
2022-08-05T16:32:53.316Z,21.90
2022-08-05T16:35:20.173Z,21.00
2022-08-05T16:38:02.621Z,20.90
2022-08-05T16:40:42.477Z,22.40
2022-08-05T16:43:16.466Z,22.80
2022-08-05T16:46:05.057Z,23.30
2022-08-05T16:48:33.353Z,23.00
2022-08-05T16:51:01.902Z,22.30
2022-08-05T16:53:32.427Z,21.60
2022-08-05T16:55:59.680Z,22.10
2022-08-05T16:58:26.494Z,22.60
2022-08-05T17:00:53.447Z,23.20
2022-08-05T17:03:21.063Z,22.90
2022-08-05T17:05:53.614Z,21.90
2022-08-05T17:08:36.778Z,21.00
2022-08-05T17:11:12.858Z,20.60
2022-08-05T17:13:45.102Z,20.30
2022-08-05T17:16:30.258Z,20.40
2022-08-05T17:18:58.811Z,20.10
2022-08-05T17:21:25.670Z,20.10
2022-08-05T17:24:06.068Z,20.00
2022-08-05T17:26:49.311Z,19.80
2022-08-05T17:29:16.169Z,19.70
2022-08-05T17:31:58.690Z,19.70
2022-08-05T17:34:29.837Z,19.20
2022-08-05T17:36:58.972Z,19.30
2022-08-05T17:39:33.361Z,19.10
2022-08-05T17:42:18.901Z,19.20
2022-08-05T17:44:50.087Z,19.20
2022-08-05T17:47:22.319Z,19.00
2022-08-05T17:49:59.965Z,19.00
2022-08-05T17:52:30.658Z,19.10
2022-08-05T17:54:58.163Z,19.00
2022-08-05T17:57:24.884Z,19.10
2022-08-05T18:00:03.707Z,19.10
2022-08-05T18:02:33.016Z,18.90
2022-08-05T18:05:03.682Z,18.70
2022-08-05T18:07:42.056Z,18.70
2022-08-05T18:10:11.387Z,18.70
2022-08-05T18:12:39.119Z,18.70
2022-08-05T18:15:06.341Z,18.60
2022-08-05T18:18:00.132Z,18.70
2022-08-05T18:20:29.328Z,18.60
2022-08-05T18:23:00.744Z,18.70
2022-08-05T18:25:35.823Z,18.60
2022-08-05T18:28:04.648Z,18.50
2022-08-05T18:30:33.171Z,18.50
2022-08-05T18:33:01.234Z,18.50
2022-08-05T18:36:00.670Z,18.40
2022-08-05T18:38:19.490Z,18.30
2022-08-05T18:41:54.351Z,18.30
2022-08-05T18:43:42.942Z,18.30
2022-08-05T18:46:15.556Z,18.10
2022-08-05T18:48:51.620Z,18.20
2022-08-05T18:52:02.734Z,18.00
2022-08-05T18:54:26.061Z,18.00
2022-08-05T18:56:54.235Z,18.00
2022-08-05T18:59:43.587Z,18.10
2022-08-05T19:02:11.263Z,18.00
2022-08-05T19:05:01.335Z,18.00
2022-08-05T19:07:45.039Z,17.90
2022-08-05T19:10:12.271Z,17.90
2022-08-05T19:12:38.998Z,17.90
2022-08-05T19:15:06.333Z,18.00
2022-08-05T19:18:08.677Z,17.90
2022-08-05T19:20:41.776Z,17.80
2022-08-05T19:24:06.252Z,17.70
2022-08-05T19:26:02.781Z,17.70
2022-08-05T19:28:34.648Z,17.70
2022-08-05T19:31:05.734Z,17.70
2022-08-05T19:33:36.428Z,17.70
2022-08-05T19:36:07.216Z,17.70
2022-08-05T19:38:36.624Z,17.70
2022-08-05T19:41:07.062Z,17.70
2022-08-05T19:44:06.373Z,17.70
2022-08-05T19:46:29.251Z,17.60
2022-08-05T19:49:03.039Z,17.60
2022-08-05T19:52:05.439Z,17.90
2022-08-05T19:54:27.209Z,17.60
2022-08-05T19:57:06.806Z,17.60
2022-08-05T20:00:01.334Z,17.50
2022-08-05T20:02:23.981Z,17.50
2022-08-05T20:04:52.785Z,17.50
2022-08-05T20:07:46.698Z,17.60
2022-08-05T20:10:11.635Z,17.50
2022-08-05T20:12:46.343Z,17.50
2022-08-05T20:15:47.843Z,17.50
2022-08-05T20:18:10.238Z,17.50
2022-08-05T20:20:55.025Z,17.50
2022-08-05T20:23:22.368Z,17.40
2022-08-05T20:25:49.232Z,17.40
2022-08-05T20:28:19.090Z,17.40
2022-08-05T20:30:45.724Z,17.50
2022-08-05T20:33:14.639Z,17.50
2022-08-05T20:35:45.658Z,17.50
2022-08-05T20:38:19.996Z,17.40
2022-08-05T20:40:50.334Z,17.50
2022-08-05T20:43:17.556Z,17.40
2022-08-05T20:46:04.288Z,17.40
2022-08-05T20:48:30.901Z,17.40
2022-08-05T20:50:57.602Z,17.30
2022-08-05T20:53:40.623Z,17.20
2022-08-05T20:56:09.707Z,17.30
2022-08-05T20:58:36.872Z,17.20
2022-08-05T21:01:04.580Z,17.20
2022-08-05T21:03:34.575Z,17.10
2022-08-05T21:06:01.855Z,17.10
2022-08-05T21:08:41.254Z,17.10
2022-08-05T21:11:11.915Z,17.10
2022-08-05T21:13:55.874Z,17.10
2022-08-05T21:16:29.556Z,17.10
2022-08-05T21:19:00.003Z,17.10
2022-08-05T21:21:39.196Z,17.00
2022-08-05T21:24:12.728Z,17.10
2022-08-05T21:26:39.815Z,17.00
2022-08-05T21:29:10.163Z,17.10
2022-08-05T21:31:41.511Z,17.00
2022-08-05T21:34:10.629Z,17.10
2022-08-05T21:36:38.096Z,17.00
2022-08-05T21:39:05.040Z,17.10
2022-08-05T21:41:34.330Z,17.00
2022-08-05T21:44:03.878Z,17.00
2022-08-05T21:46:34.456Z,16.30
2022-08-05T21:49:02.306Z,16.90
2022-08-05T21:52:27.829Z,16.90
2022-08-05T21:54:30.925Z,16.80
2022-08-05T21:57:28.402Z,16.80
2022-08-05T22:00:03.083Z,16.80
2022-08-05T22:02:31.760Z,16.70
2022-08-05T22:04:58.608Z,16.80
2022-08-05T22:07:40.372Z,16.80
2022-08-05T22:10:12.789Z,16.70
2022-08-05T22:12:44.888Z,16.70
2022-08-05T22:16:02.492Z,16.70
2022-08-05T22:18:05.544Z,16.60
2022-08-05T22:20:32.513Z,16.70
2022-08-05T22:23:21.438Z,16.60
2022-08-05T22:26:10.015Z,16.70
2022-08-05T22:28:38.746Z,16.60
2022-08-05T22:31:06.038Z,16.50
2022-08-05T22:33:55.587Z,16.50
2022-08-05T22:36:23.856Z,16.50
2022-08-05T22:38:51.802Z,16.50
2022-08-05T22:41:26.169Z,16.40
2022-08-05T22:44:08.552Z,17.70
2022-08-05T22:46:40.275Z,16.40
2022-08-05T22:49:12.486Z,16.40
2022-08-05T22:52:04.612Z,16.40
2022-08-05T22:54:35.375Z,16.30
2022-08-05T22:57:02.862Z,16.40
2022-08-05T22:59:45.400Z,16.30
2022-08-05T23:02:16.910Z,16.30
2022-08-05T23:04:51.401Z,16.30
2022-08-05T23:07:22.004Z,16.30
2022-08-05T23:09:53.362Z,16.30
2022-08-05T23:12:25.560Z,16.30
2022-08-05T23:14:55.533Z,16.30
2022-08-05T23:17:32.846Z,16.30
2022-08-05T23:20:02.704Z,16.30
2022-08-05T23:22:30.822Z,16.20
2022-08-05T23:24:58.090Z,16.20
2022-08-05T23:27:28.953Z,16.20
2022-08-05T23:30:00.773Z,16.10
2022-08-05T23:32:28.574Z,16.10
2022-08-05T23:34:56.483Z,16.10
2022-08-05T23:37:23.153Z,16.20
2022-08-05T23:39:54.185Z,16.00
2022-08-05T23:42:28.887Z,16.00
2022-08-05T23:44:56.534Z,16.00
2022-08-05T23:47:24.814Z,16.00
2022-08-05T23:49:55.561Z,16.00
2022-08-05T23:52:36.228Z,16.00
2022-08-05T23:55:16.968Z,16.10
2022-08-05T23:57:44.359Z,16.10
